Pledger, Texas
Current Conditions -  °F | °C
As of 6:15 AM on Friday 21 Nov 2014 (Local Time) from KARM Reporting Station
Overcast Overcast  
Wind Chill: 63°   Ceiling: 2000
Heat Index: 63°   Visibility: 7mi
Dew Point: 63°   Wind: 5mph
Humidity: 98%   Direction: 110°ESE
Pressure: 30.09"   Gusts: NA
Location:  29.18°N, 95.91°W
Report Text: KARM 211215Z AUTO 11004KT 7SM BKN020 BKN033 OVC055 17/17 A3009 RMK AO2 T01730170
Loading
Personal Weather Stations






























Interactive Weather Map New forecast layout! Learn more

10-Day Weather Forecast

Advertisements
Track Severe Weather on mobile